createdAt,value
2023-10-10T00:02:57.742Z,29.33
2023-10-10T00:06:00.098Z,26.02
2023-10-10T00:09:01.302Z,22.98
2023-10-10T00:12:04.137Z,20.40
2023-10-10T00:15:07.053Z,30.50
2023-10-10T00:18:12.786Z,38.42
2023-10-10T00:21:24.426Z,25.73
2023-10-10T00:24:32.530Z,28.70
2023-10-10T00:27:35.191Z,29.27
2023-10-10T00:30:44.746Z,36.78
2023-10-10T00:33:47.531Z,30.35
2023-10-10T00:36:49.401Z,31.08
2023-10-10T00:39:57.081Z,27.30
2023-10-10T00:43:05.537Z,25.42
2023-10-10T00:46:12.901Z,22.08
2023-10-10T00:49:18.449Z,25.55
2023-10-10T00:52:20.888Z,37.63
2023-10-10T00:55:26.970Z,34.85
2023-10-10T00:58:47.548Z,38.67
2023-10-10T01:01:49.003Z,28.17
2023-10-10T01:04:56.688Z,31.42
2023-10-10T01:08:00.696Z,37.35
2023-10-10T01:11:06.364Z,35.17
2023-10-10T01:14:07.672Z,34.35
2023-10-10T01:17:13.736Z,21.38
2023-10-10T01:20:22.048Z,33.92
2023-10-10T01:23:28.381Z,28.65
2023-10-10T01:26:38.541Z,36.17
2023-10-10T01:29:42.399Z,39.75
2023-10-10T01:32:43.410Z,26.63
2023-10-10T01:35:45.378Z,27.13
2023-10-10T01:39:01.413Z,24.00
2023-10-10T01:42:02.606Z,25.48
2023-10-10T01:45:10.315Z,27.25
2023-10-10T01:48:12.597Z,31.05
2023-10-10T01:51:16.990Z,29.92
2023-10-10T01:54:22.249Z,30.85
2023-10-10T01:57:23.627Z,21.63
2023-10-10T02:00:28.873Z,17.83
2023-10-10T02:03:30.512Z,25.52
2023-10-10T02:06:35.997Z,19.80
2023-10-10T02:09:41.532Z,23.48
2023-10-10T02:12:46.791Z,25.42
2023-10-10T02:15:48.095Z,25.30
2023-10-10T02:18:56.261Z,23.30
2023-10-10T02:22:15.587Z,26.85
2023-10-10T02:25:37.415Z,29.67
2023-10-10T02:28:45.365Z,26.08
2023-10-10T02:32:05.260Z,23.95
2023-10-10T02:35:28.185Z,35.30
2023-10-10T02:38:33.615Z,28.38
2023-10-10T02:41:40.814Z,27.52
2023-10-10T02:44:48.344Z,20.35
2023-10-10T02:50:56.032Z,19.90
2023-10-10T02:53:58.872Z,15.05
2023-10-10T02:57:07.830Z,18.30
2023-10-10T03:00:24.117Z,14.70
2023-10-10T03:03:26.340Z,24.80
2023-10-10T03:06:30.329Z,20.88
2023-10-10T03:10:01.090Z,24.67
2023-10-10T03:13:27.460Z,14.13
2023-10-10T03:16:29.179Z,21.25
2023-10-10T03:19:40.328Z,22.45
2023-10-10T03:22:59.693Z,22.55
2023-10-10T03:26:01.005Z,24.45
2023-10-10T03:29:06.409Z,17.92
2023-10-10T03:32:22.969Z,18.45
2023-10-10T03:35:34.952Z,24.60
2023-10-10T03:38:39.339Z,26.35
2023-10-10T03:41:59.164Z,26.80
2023-10-10T03:45:18.841Z,18.30
2023-10-10T03:48:38.610Z,20.95
2023-10-10T03:51:57.988Z,21.23
2023-10-10T03:55:18.285Z,25.55
2023-10-10T03:58:37.587Z,25.98
2023-10-10T04:01:56.779Z,28.17
2023-10-10T04:05:27.119Z,29.85
2023-10-10T04:08:47.588Z,19.38
2023-10-10T04:12:07.762Z,26.63
2023-10-10T04:15:28.042Z,25.83
2023-10-10T04:18:47.804Z,23.10
2023-10-10T04:22:07.443Z,34.05
2023-10-10T04:25:26.695Z,29.15
2023-10-10T04:28:45.904Z,39.08
2023-10-10T04:32:05.183Z,39.22
2023-10-10T04:35:25.196Z,31.42
2023-10-10T04:38:44.406Z,32.85
2023-10-10T04:42:03.962Z,42.08
2023-10-10T04:45:24.255Z,36.08
2023-10-10T04:48:44.142Z,43.00
2023-10-10T04:52:03.702Z,33.83
2023-10-10T04:55:23.161Z,27.65
2023-10-10T04:58:42.258Z,34.28
2023-10-10T05:02:01.731Z,22.30
2023-10-10T05:05:21.034Z,38.83
2023-10-10T05:08:40.846Z,22.85
2023-10-10T05:12:00.503Z,23.35
2023-10-10T05:15:20.333Z,33.80
2023-10-10T05:18:39.847Z,30.55
2023-10-10T05:22:09.596Z,36.75
2023-10-10T05:25:14.582Z,27.17
2023-10-10T05:28:16.719Z,46.08
2023-10-10T05:31:22.985Z,29.90
2023-10-10T05:34:24.602Z,34.75
2023-10-10T05:37:26.532Z,20.23
2023-10-10T05:40:34.816Z,32.28
2023-10-10T05:43:36.508Z,32.97
2023-10-10T05:46:37.633Z,29.48
2023-10-10T05:49:38.695Z,33.85
2023-10-10T05:52:40.071Z,31.58
2023-10-10T05:55:42.247Z,43.60
2023-10-10T05:58:48.669Z,30.65
2023-10-10T06:01:49.768Z,30.40
2023-10-10T06:04:52.861Z,25.55
2023-10-10T06:07:54.004Z,26.05
2023-10-10T06:10:55.393Z,32.20
2023-10-10T06:13:56.427Z,31.27
2023-10-10T06:16:57.420Z,33.67
2023-10-10T06:19:58.507Z,28.17
2023-10-10T06:23:00.635Z,25.20
2023-10-10T06:26:08.461Z,24.38
2023-10-10T06:29:09.755Z,33.50
2023-10-10T06:32:17.094Z,32.70
2023-10-10T06:35:21.546Z,20.00
2023-10-10T06:38:26.048Z,27.63
2023-10-10T06:41:29.445Z,31.88
2023-10-10T06:44:34.002Z,26.48
2023-10-10T06:47:35.740Z,23.80
2023-10-10T06:50:40.288Z,24.48
2023-10-10T06:53:41.230Z,26.83
2023-10-10T06:57:02.408Z,27.85
2023-10-10T07:00:29.613Z,27.80
2023-10-10T07:03:41.569Z,28.00
2023-10-10T07:06:53.044Z,31.05
2023-10-10T07:09:59.581Z,27.83
2023-10-10T07:13:01.623Z,21.60
2023-10-10T07:16:03.090Z,25.98
2023-10-10T07:19:21.149Z,22.67
2023-10-10T07:22:23.653Z,24.88
2023-10-10T07:25:33.631Z,23.10
2023-10-10T07:28:49.438Z,16.10
2023-10-10T07:31:50.445Z,20.25
2023-10-10T07:34:54.028Z,23.52
2023-10-10T07:38:00.509Z,20.95
2023-10-10T07:41:01.844Z,23.57
2023-10-10T07:44:02.644Z,17.60
2023-10-10T07:47:11.154Z,23.23
2023-10-10T07:50:12.560Z,23.83
2023-10-10T07:53:14.408Z,18.08
2023-10-10T07:56:15.709Z,24.70
2023-10-10T07:59:19.061Z,15.95
2023-10-10T08:02:26.828Z,21.23
2023-10-10T08:05:31.050Z,14.25
2023-10-10T08:08:32.529Z,20.15
2023-10-10T08:11:39.844Z,18.40
2023-10-10T08:17:52.996Z,19.33
2023-10-10T08:20:53.988Z,18.50
2023-10-10T08:24:00.955Z,24.92
2023-10-10T08:27:11.515Z,15.43
2023-10-10T08:30:14.941Z,17.20
2023-10-10T08:33:15.983Z,16.98
2023-10-10T08:36:25.071Z,17.52
2023-10-10T08:39:26.883Z,15.07
2023-10-10T08:42:28.665Z,15.15
2023-10-10T08:45:41.576Z,16.60
2023-10-10T08:48:43.442Z,18.90
2023-10-10T08:51:46.364Z,11.90
2023-10-10T08:54:49.192Z,12.35
2023-10-10T08:57:52.877Z,15.13
2023-10-10T09:00:55.526Z,11.98
2023-10-10T09:03:59.047Z,12.65
2023-10-10T09:07:01.910Z,12.38
2023-10-10T09:10:06.579Z,12.73
2023-10-10T09:13:08.948Z,12.10
2023-10-10T09:16:14.755Z,15.48
2023-10-10T09:19:16.152Z,11.93
2023-10-10T09:22:30.609Z,16.50
2023-10-10T09:25:45.664Z,14.27
2023-10-10T09:28:50.675Z,12.75
2023-10-10T09:32:00.824Z,18.00
2023-10-10T09:35:01.863Z,21.73
2023-10-10T09:38:05.535Z,14.98
2023-10-10T09:41:16.343Z,21.45
2023-10-10T09:44:25.406Z,18.35
2023-10-10T09:47:43.691Z,17.80
2023-10-10T09:51:09.526Z,16.65
2023-10-10T09:54:17.593Z,25.40
2023-10-10T09:57:19.341Z,18.27
2023-10-10T10:00:31.982Z,14.25
2023-10-10T10:03:36.251Z,21.33
2023-10-10T10:10:49.652Z,18.50
2023-10-10T10:14:08.529Z,17.67
2023-10-10T10:17:56.235Z,22.25
2023-10-10T10:21:18.292Z,19.50
2023-10-10T10:24:30.841Z,17.75
2023-10-10T10:27:41.061Z,21.52
2023-10-10T10:30:54.894Z,25.20
2023-10-10T10:34:25.279Z,18.38
2023-10-10T10:37:29.634Z,23.42
2023-10-10T10:40:41.916Z,17.55
2023-10-10T10:43:52.701Z,18.45
2023-10-10T10:46:57.997Z,13.30
2023-10-10T10:49:59.468Z,21.70
2023-10-10T10:53:06.870Z,19.88
2023-10-10T10:56:28.260Z,24.50
2023-10-10T10:59:40.502Z,18.98
2023-10-10T11:02:50.964Z,23.73
2023-10-10T11:05:55.593Z,24.02
2023-10-10T11:09:11.057Z,24.00
2023-10-10T11:12:14.360Z,27.50
2023-10-10T11:15:16.528Z,23.35
2023-10-10T11:18:25.715Z,28.08
2023-10-10T11:21:29.744Z,26.50
2023-10-10T11:24:33.165Z,20.50
2023-10-10T11:27:45.239Z,19.50
2023-10-10T11:30:47.322Z,25.48
2023-10-10T11:33:50.172Z,27.50
2023-10-10T11:36:52.646Z,25.63
2023-10-10T11:40:21.252Z,22.45
2023-10-10T11:43:24.072Z,26.98
2023-10-10T11:46:25.315Z,19.33
2023-10-10T11:49:27.234Z,24.13
2023-10-10T11:52:31.350Z,17.63
2023-10-10T11:55:32.424Z,26.90
2023-10-10T11:58:39.226Z,18.73
2023-10-10T12:01:55.962Z,24.27
2023-10-10T12:04:57.344Z,29.75
2023-10-10T12:08:02.896Z,22.55
2023-10-10T12:11:12.677Z,20.58
2023-10-10T12:14:20.605Z,22.40
2023-10-10T12:17:22.657Z,23.85
2023-10-10T12:20:23.856Z,26.08
2023-10-10T12:23:25.193Z,19.15
2023-10-10T12:26:26.279Z,27.42
2023-10-10T12:29:29.511Z,42.78
2023-10-10T12:32:35.619Z,23.00
2023-10-10T12:35:37.366Z,24.02
2023-10-10T12:38:41.821Z,16.67
2023-10-10T12:41:48.992Z,26.70
2023-10-10T12:44:50.437Z,21.20
2023-10-10T12:47:51.407Z,16.33
2023-10-10T12:50:53.448Z,21.88
2023-10-10T12:54:02.705Z,26.85
2023-10-10T12:57:07.506Z,23.63
2023-10-10T13:00:34.442Z,21.30
2023-10-10T13:03:35.859Z,21.88
2023-10-10T13:06:37.484Z,18.77
2023-10-10T13:09:44.296Z,21.25
2023-10-10T13:16:09.101Z,27.30
2023-10-10T13:19:11.069Z,21.13
2023-10-10T13:22:22.490Z,23.52
2023-10-10T13:25:23.634Z,16.15
2023-10-10T13:28:24.739Z,18.05
2023-10-10T13:31:25.758Z,18.10
2023-10-10T13:34:26.928Z,18.88
2023-10-10T13:37:28.075Z,18.42
2023-10-10T13:40:37.528Z,23.40
2023-10-10T13:43:42.772Z,16.25
2023-10-10T13:46:43.931Z,16.27
2023-10-10T13:49:59.825Z,18.92
2023-10-10T13:53:00.994Z,17.00
2023-10-10T13:56:05.243Z,23.27
2023-10-10T13:59:06.352Z,18.63
2023-10-10T14:02:12.658Z,24.75
2023-10-10T14:05:21.352Z,12.48
2023-10-10T14:08:22.271Z,22.58
2023-10-10T14:11:23.462Z,19.27
2023-10-10T14:14:24.519Z,21.52
2023-10-10T14:17:25.536Z,15.48
2023-10-10T14:20:28.446Z,17.13
2023-10-10T14:23:31.377Z,22.63
2023-10-10T14:26:35.503Z,17.80
2023-10-10T14:29:43.509Z,23.50
2023-10-10T14:32:44.636Z,26.55
2023-10-10T14:35:46.189Z,20.00
2023-10-10T14:38:48.493Z,21.95
2023-10-10T14:41:49.521Z,19.40
2023-10-10T14:44:50.733Z,19.95
2023-10-10T14:47:53.316Z,25.55
2023-10-10T14:50:54.309Z,19.60
2023-10-10T14:53:55.243Z,24.48
2023-10-10T14:56:56.367Z,29.33
2023-10-10T14:59:57.558Z,21.42
2023-10-10T15:02:58.921Z,23.00
2023-10-10T15:06:07.646Z,25.30
2023-10-10T15:09:09.805Z,18.90
2023-10-10T15:12:11.237Z,24.67
2023-10-10T15:15:12.092Z,26.05
2023-10-10T15:18:17.726Z,22.70
2023-10-10T15:21:19.186Z,22.27
2023-10-10T15:24:20.817Z,28.23
2023-10-10T15:27:21.818Z,22.60
2023-10-10T15:30:22.805Z,22.83
2023-10-10T15:33:26.448Z,30.63
2023-10-10T15:36:32.187Z,29.90
2023-10-10T15:39:33.373Z,26.75
2023-10-10T15:42:34.637Z,19.40
2023-10-10T15:45:39.268Z,20.75
2023-10-10T15:48:43.832Z,32.05
2023-10-10T15:51:46.437Z,31.27
2023-10-10T15:54:52.108Z,30.00
2023-10-10T15:57:54.865Z,18.35
2023-10-10T16:00:59.203Z,25.30
2023-10-10T16:04:14.102Z,27.48
2023-10-10T16:07:18.166Z,25.90
2023-10-10T16:10:19.103Z,22.40
2023-10-10T16:13:20.330Z,27.10
2023-10-10T16:16:21.506Z,20.13
2023-10-10T16:19:27.328Z,25.73
2023-10-10T16:22:29.320Z,30.25
2023-10-10T16:25:30.214Z,16.48
2023-10-10T16:28:31.659Z,27.05
2023-10-10T16:31:32.910Z,23.83
2023-10-10T16:34:35.102Z,18.65
2023-10-10T16:37:37.965Z,28.27
2023-10-10T16:40:41.202Z,21.85
2023-10-10T16:43:58.039Z,22.85
2023-10-10T16:47:02.570Z,21.05
2023-10-10T16:50:03.566Z,30.83
2023-10-10T16:53:11.211Z,28.23
2023-10-10T16:56:14.010Z,27.60
2023-10-10T16:59:16.248Z,19.83
2023-10-10T17:02:17.900Z,26.13
2023-10-10T17:05:25.119Z,27.45
2023-10-10T17:11:27.941Z,20.00
2023-10-10T17:14:30.619Z,27.08
2023-10-10T17:17:32.040Z,15.85
2023-10-10T17:20:32.902Z,18.17
2023-10-10T17:23:34.371Z,25.95
2023-10-10T17:26:35.764Z,36.53
2023-10-10T17:29:37.407Z,31.48
2023-10-10T17:32:41.601Z,26.48
2023-10-10T17:35:43.062Z,26.65
2023-10-10T17:38:45.511Z,21.88
2023-10-10T17:41:49.666Z,20.08
2023-10-10T17:44:50.730Z,28.80
2023-10-10T17:47:52.702Z,25.13
2023-10-10T17:50:53.852Z,29.92
2023-10-10T17:53:55.982Z,26.95
2023-10-10T17:56:57.945Z,26.02
2023-10-10T17:59:59.216Z,31.30
2023-10-10T18:03:05.189Z,30.23
2023-10-10T18:06:06.591Z,28.83
2023-10-10T18:09:10.394Z,27.63
2023-10-10T18:12:13.416Z,26.63
2023-10-10T18:15:20.201Z,24.88
2023-10-10T18:18:21.177Z,25.87
2023-10-10T18:21:22.456Z,26.50
2023-10-10T18:24:28.876Z,35.40
2023-10-10T18:27:29.882Z,27.57
2023-10-10T18:30:30.983Z,43.28
2023-10-10T18:33:31.783Z,33.78
2023-10-10T18:36:38.997Z,49.38
2023-10-10T18:39:40.561Z,42.28
2023-10-10T18:42:41.736Z,38.05
2023-10-10T18:45:42.569Z,29.02
2023-10-10T18:48:44.157Z,30.50
2023-10-10T18:51:45.371Z,34.85
2023-10-10T18:54:46.442Z,39.97
2023-10-10T18:57:49.400Z,34.67
2023-10-10T19:00:52.709Z,30.45
2023-10-10T19:03:53.948Z,37.78
2023-10-10T19:06:54.944Z,37.17
2023-10-10T19:09:57.945Z,35.13
2023-10-10T19:12:59.373Z,40.47
2023-10-10T19:16:03.401Z,39.55
2023-10-10T19:19:06.249Z,31.85
2023-10-10T19:22:07.310Z,34.90
2023-10-10T19:25:13.210Z,27.98
2023-10-10T19:28:16.450Z,33.50
2023-10-10T19:31:19.592Z,27.35
2023-10-10T19:34:20.754Z,35.85
2023-10-10T19:37:21.948Z,37.20
2023-10-10T19:40:24.778Z,32.17
2023-10-10T19:43:26.601Z,29.50
2023-10-10T19:46:30.298Z,27.67
2023-10-10T19:49:36.013Z,26.17
2023-10-10T19:52:41.983Z,30.73
2023-10-10T19:55:44.092Z,17.80
2023-10-10T19:58:47.260Z,26.92
2023-10-10T20:01:49.369Z,16.33
2023-10-10T20:04:51.699Z,24.85
2023-10-10T20:07:55.125Z,19.33
2023-10-10T20:10:57.916Z,17.65
2023-10-10T20:13:58.743Z,20.83
2023-10-10T20:16:59.808Z,22.30
2023-10-10T20:20:04.391Z,20.75
2023-10-10T20:23:07.913Z,28.27
2023-10-10T20:26:20.101Z,21.17
2023-10-10T20:29:21.494Z,22.27
2023-10-10T20:32:22.435Z,22.40
2023-10-10T20:35:26.808Z,21.63
2023-10-10T20:38:27.801Z,32.25
2023-10-10T20:41:29.169Z,20.88
2023-10-10T20:44:30.324Z,23.83
2023-10-10T20:47:31.339Z,21.30
2023-10-10T20:50:34.721Z,19.63
2023-10-10T20:53:35.548Z,22.63
2023-10-10T20:56:36.562Z,17.55
2023-10-10T20:59:37.464Z,28.40
2023-10-10T21:02:39.770Z,24.63
2023-10-10T21:05:44.159Z,18.45
2023-10-10T21:08:45.330Z,18.08
2023-10-10T21:11:46.573Z,21.42
2023-10-10T21:14:47.934Z,21.00
2023-10-10T21:17:53.279Z,16.92
2023-10-10T21:21:03.684Z,14.93
2023-10-10T21:24:07.955Z,14.15
2023-10-10T21:27:09.194Z,18.10
2023-10-10T21:30:13.876Z,13.88
2023-10-10T21:33:15.546Z,18.75
2023-10-10T21:36:16.954Z,21.45
2023-10-10T21:39:20.120Z,14.60
2023-10-10T21:42:25.769Z,14.32
2023-10-10T21:45:27.074Z,17.92
2023-10-10T21:48:28.022Z,14.20
2023-10-10T21:51:29.246Z,14.68
2023-10-10T21:54:33.536Z,17.95
2023-10-10T21:57:37.277Z,14.20
2023-10-10T22:00:38.394Z,15.75
2023-10-10T22:03:43.945Z,17.23
2023-10-10T22:06:46.807Z,13.52
2023-10-10T22:09:49.770Z,14.85
2023-10-10T22:12:56.426Z,12.23
2023-10-10T22:15:57.771Z,17.83
2023-10-10T22:18:59.571Z,16.35
2023-10-10T22:22:02.140Z,14.05
2023-10-10T22:25:04.555Z,21.52
2023-10-10T22:28:06.000Z,18.25
2023-10-10T22:31:16.547Z,8.25
2023-10-10T22:34:19.216Z,13.57
2023-10-10T22:37:21.465Z,9.23
2023-10-10T22:40:28.440Z,23.48
2023-10-10T22:43:29.315Z,11.57
2023-10-10T22:46:31.558Z,16.73
2023-10-10T22:49:32.810Z,14.82
2023-10-10T22:52:38.320Z,14.10
2023-10-10T22:55:40.936Z,11.18
2023-10-10T22:58:44.125Z,13.85
2023-10-10T23:01:46.749Z,17.77
2023-10-10T23:04:48.338Z,12.93
2023-10-10T23:07:49.258Z,16.73
2023-10-10T23:10:50.394Z,16.65
2023-10-10T23:13:53.499Z,13.82
2023-10-10T23:16:56.972Z,20.00
2023-10-10T23:19:57.789Z,15.80
2023-10-10T23:23:00.865Z,13.93
2023-10-10T23:26:04.978Z,20.40
2023-10-10T23:29:05.759Z,23.17
2023-10-10T23:32:07.312Z,20.38
2023-10-10T23:35:09.866Z,17.00
2023-10-10T23:38:11.108Z,16.95
2023-10-10T23:41:15.722Z,22.08
2023-10-10T23:44:18.117Z,20.45
2023-10-10T23:47:18.777Z,24.27
2023-10-10T23:50:23.600Z,21.70
2023-10-10T23:53:25.129Z,15.80
2023-10-10T23:56:26.364Z,18.20
2023-10-10T23:59:27.431Z,30.45
